Time;durP1;ratioP1;P1;durP2;ratioP2;P2;SDS_P1;SDS_P2;PMS_P1;PMS_P2;Temp;Humidity;BMP_temperature;BMP_pressure;BME280_temperature;BME280_humidity;BME280_pressure;Samples;Min_cycle;Max_cycle;Signal;HPM_P1;HPM_P2
2023/04/29 00:02:16;;;;;;;8.80;8.50;;;11.40;99.90;;;;;;5061856;28;20242;-84
2023/04/29 00:04:44;;;;;;;8.67;8.40;;;11.40;99.90;;;;;;5060206;28;20305;-84
2023/04/29 00:07:14;;;;;;;8.90;8.60;;;11.40;99.90;;;;;;5070031;28;20214;-84
2023/04/29 00:09:41;;;;;;;8.80;8.50;;;11.30;99.90;;;;;;5061757;28;20261;-84
2023/04/29 00:12:10;;;;;;;8.90;8.60;;;11.30;99.90;;;;;;5061241;28;20362;-84
2023/04/29 00:14:37;;;;;;;9.10;8.80;;;11.30;99.90;;;;;;5060215;28;20245;-85
2023/04/29 00:17:06;;;;;;;8.90;8.60;;;11.30;99.90;;;;;;5059578;28;20275;-85
2023/04/29 00:19:35;;;;;;;9.10;8.80;;;11.30;99.90;;;;;;5058805;28;20234;-85
2023/04/29 00:22:03;;;;;;;8.90;8.60;;;11.40;99.90;;;;;;5059291;28;20231;-85
2023/04/29 00:24:30;;;;;;;8.80;8.50;;;11.40;99.90;;;;;;5058937;28;20233;-85
2023/04/29 00:26:58;;;;;;;9.20;8.90;;;11.40;99.90;;;;;;5059148;28;20231;-85
2023/04/29 00:29:26;;;;;;;8.80;8.50;;;11.40;99.90;;;;;;5059799;28;20273;-85
2023/04/29 00:31:54;;;;;;;9.00;8.70;;;11.40;99.90;;;;;;5060366;28;20226;-85
2023/04/29 00:34:23;;;;;;;9.10;8.80;;;11.40;99.90;;;;;;5059413;28;20227;-85
2023/04/29 00:36:51;;;;;;;9.20;8.90;;;11.30;99.90;;;;;;5059265;28;20227;-84
2023/04/29 00:39:19;;;;;;;9.07;8.77;;;11.30;99.90;;;;;;5058577;28;20261;-84
2023/04/29 00:41:47;;;;;;;9.00;8.70;;;11.30;99.90;;;;;;5058819;28;20302;-85
2023/04/29 00:44:14;;;;;;;9.37;9.07;;;11.30;99.90;;;;;;5058470;28;20242;-85
2023/04/29 00:46:42;;;;;;;9.13;8.83;;;11.30;99.90;;;;;;5059274;28;20314;-85
2023/04/29 00:49:11;;;;;;;9.10;8.80;;;11.30;99.90;;;;;;5058695;28;20230;-85
2023/04/29 00:51:41;;;;;;;9.10;8.80;;;11.30;99.90;;;;;;5058593;28;20245;-85
2023/04/29 00:54:10;;;;;;;9.00;8.70;;;11.20;99.90;;;;;;5058875;28;20226;-85
2023/04/29 00:56:40;;;;;;;8.97;8.67;;;11.20;99.90;;;;;;5058295;28;20223;-85
2023/04/29 00:59:11;;;;;;;9.10;8.80;;;11.20;99.90;;;;;;5058310;28;20242;-85
2023/04/29 01:01:39;;;;;;;9.17;8.87;;;11.20;99.90;;;;;;5058697;28;20238;-85
2023/04/29 01:04:07;;;;;;;9.30;9.00;;;11.20;99.90;;;;;;5058246;28;20253;-85
2023/04/29 01:06:49;;;;;;;9.30;9.00;;;11.30;99.90;;;;;;5063298;28;20262;-84
2023/04/29 01:09:38;;;;;;;9.00;8.70;;;11.20;99.90;;;;;;5061647;28;20233;-85
2023/04/29 01:12:21;;;;;;;9.00;8.70;;;11.20;99.90;;;;;;5059732;28;20244;-85
2023/04/29 01:15:04;;;;;;;9.20;8.90;;;11.20;99.90;;;;;;5059064;28;20238;-83
2023/04/29 01:17:40;;;;;;;9.00;8.70;;;11.10;99.90;;;;;;5058416;28;20246;-84
2023/04/29 01:20:11;;;;;;;9.07;8.77;;;11.10;99.90;;;;;;5058443;28;20241;-84
2023/04/29 01:22:40;;;;;;;9.10;8.80;;;11.10;99.90;;;;;;5058431;28;20322;-83
2023/04/29 01:25:10;;;;;;;9.20;8.90;;;11.10;99.90;;;;;;5058841;28;20246;-84
2023/04/29 01:27:48;;;;;;;9.03;8.73;;;11.10;99.90;;;;;;5059040;28;20227;-84
2023/04/29 01:30:31;;;;;;;9.00;8.70;;;11.00;99.90;;;;;;5059223;28;20234;-84
2023/04/29 01:33:09;;;;;;;9.20;8.90;;;11.10;99.90;;;;;;5062431;28;20231;-84
2023/04/29 01:35:53;;;;;;;9.10;8.80;;;11.10;99.90;;;;;;5062423;28;20240;-84
2023/04/29 01:38:31;;;;;;;9.00;8.70;;;11.10;99.90;;;;;;5062184;28;20230;-83
2023/04/29 01:41:11;;;;;;;9.10;8.80;;;11.10;99.90;;;;;;5062237;28;20322;-83
2023/04/29 01:43:39;;;;;;;9.07;8.77;;;11.10;99.90;;;;;;5061735;28;20241;-83
2023/04/29 01:46:10;;;;;;;9.07;8.77;;;11.20;99.90;;;;;;5061559;28;20235;-85
2023/04/29 01:48:38;;;;;;;9.10;8.80;;;11.20;99.90;;;;;;5067820;28;20313;-85
2023/04/29 01:51:07;;;;;;;9.00;8.70;;;11.20;99.90;;;;;;5076646;28;20234;-85
2023/04/29 01:53:34;;;;;;;9.10;8.80;;;11.10;99.90;;;;;;5063695;28;20295;-85
2023/04/29 01:56:04;;;;;;;9.10;8.80;;;11.10;99.90;;;;;;5063004;28;20323;-85
2023/04/29 01:58:31;;;;;;;9.10;8.80;;;11.10;99.90;;;;;;5061960;28;20300;-84
2023/04/29 02:00:58;;;;;;;9.37;9.07;;;11.10;99.90;;;;;;5064392;28;20239;-85
2023/04/29 02:03:26;;;;;;;9.20;8.90;;;11.00;99.90;;;;;;5061212;28;20253;-85
2023/04/29 02:05:53;;;;;;;9.30;9.00;;;11.00;99.90;;;;;;5061081;28;20226;-85
2023/04/29 02:08:21;;;;;;;9.27;8.97;;;11.10;99.90;;;;;;5060820;28;20266;-85
2023/04/29 02:10:55;;;;;;;9.10;8.80;;;11.10;99.90;;;;;;5060792;28;20257;-85
2023/04/29 02:13:24;;;;;;;9.43;9.13;;;11.10;99.90;;;;;;5060989;28;20221;-85
2023/04/29 02:15:51;;;;;;;9.20;8.90;;;11.10;99.90;;;;;;5060578;28;20282;-85
2023/04/29 02:18:19;;;;;;;8.97;8.67;;;11.10;99.90;;;;;;5060408;28;20234;-85
2023/04/29 02:20:49;;;;;;;9.30;9.00;;;11.10;99.90;;;;;;5060618;28;20329;-85
2023/04/29 02:23:17;;;;;;;9.00;8.70;;;11.10;99.90;;;;;;5060464;28;20310;-84
2023/04/29 02:25:44;;;;;;;9.23;8.93;;;11.10;99.90;;;;;;5060611;28;20233;-85
2023/04/29 02:28:12;;;;;;;9.20;8.90;;;11.00;99.90;;;;;;5060154;28;20227;-85
2023/04/29 02:30:41;;;;;;;9.10;8.80;;;11.00;99.90;;;;;;5060278;28;20330;-85
2023/04/29 02:33:09;;;;;;;9.13;8.83;;;10.90;99.90;;;;;;5060396;28;20234;-85
2023/04/29 02:35:36;;;;;;;9.17;8.87;;;10.90;99.90;;;;;;5060812;28;20243;-85
2023/04/29 02:38:04;;;;;;;9.10;8.80;;;10.90;99.90;;;;;;5060466;28;20217;-85
2023/04/29 02:40:31;;;;;;;9.20;8.90;;;10.90;99.90;;;;;;5060915;28;20231;-85
2023/04/29 02:43:00;;;;;;;9.10;8.80;;;11.00;99.90;;;;;;5059479;28;20249;-85
2023/04/29 02:45:27;;;;;;;9.20;8.90;;;11.10;99.90;;;;;;5060290;28;20238;-85
2023/04/29 02:47:56;;;;;;;9.20;8.90;;;11.10;99.90;;;;;;5060781;28;20227;-85
2023/04/29 02:50:25;;;;;;;9.30;9.00;;;11.10;99.90;;;;;;5060346;28;20295;-85
2023/04/29 02:52:52;;;;;;;9.20;8.90;;;11.20;99.90;;;;;;5060456;28;20231;-85
2023/04/29 02:55:20;;;;;;;9.20;8.90;;;11.20;99.90;;;;;;5060000;28;20233;-85
2023/04/29 02:57:47;;;;;;;9.20;8.90;;;11.20;99.90;;;;;;5068823;28;20321;-85
2023/04/29 03:00:15;;;;;;;9.10;8.80;;;11.20;99.90;;;;;;5060856;28;20312;-85
2023/04/29 03:02:42;;;;;;;9.20;8.90;;;11.20;99.90;;;;;;5060667;28;20267;-85
2023/04/29 03:05:13;;;;;;;9.10;8.80;;;11.30;99.90;;;;;;5061036;28;20241;-85
2023/04/29 03:07:40;;;;;;;9.03;8.73;;;11.20;99.90;;;;;;5061330;28;20250;-85
2023/04/29 03:10:10;;;;;;;9.03;8.73;;;11.20;99.90;;;;;;5063116;28;20289;-84
2023/04/29 03:12:38;;;;;;;9.00;8.70;;;11.20;99.90;;;;;;5063965;28;20326;-85
2023/04/29 03:15:09;;;;;;;9.30;9.00;;;11.30;99.90;;;;;;5063751;28;20238;-85
2023/04/29 03:17:36;;;;;;;9.10;8.80;;;11.30;99.90;;;;;;5063665;28;20222;-85
2023/04/29 03:20:06;;;;;;;9.00;8.70;;;11.30;99.90;;;;;;5061756;28;20317;-85
2023/04/29 03:22:36;;;;;;;9.10;8.80;;;11.30;99.90;;;;;;5061745;28;20293;-85
2023/04/29 03:25:05;;;;;;;9.00;8.70;;;11.20;99.90;;;;;;5061237;28;20241;-85
2023/04/29 03:27:33;;;;;;;9.20;8.90;;;11.20;99.90;;;;;;5060916;28;20227;-85
2023/04/29 03:30:01;;;;;;;9.13;8.83;;;11.30;99.90;;;;;;5061696;28;20329;-85
2023/04/29 03:32:28;;;;;;;9.20;8.90;;;11.30;99.90;;;;;;5060550;28;20239;-85
2023/04/29 03:34:56;;;;;;;9.13;8.83;;;11.40;99.90;;;;;;5062906;28;20242;-86
2023/04/29 03:37:25;;;;;;;9.20;8.90;;;11.40;99.90;;;;;;5062983;28;20227;-85
2023/04/29 03:39:54;;;;;;;9.00;8.70;;;11.50;99.90;;;;;;5061461;28;20334;-85
2023/04/29 03:42:23;;;;;;;8.97;8.67;;;11.50;99.90;;;;;;5060786;28;20239;-84
2023/04/29 03:44:51;;;;;;;9.00;8.70;;;11.50;99.90;;;;;;5061035;28;20218;-84
2023/04/29 03:47:19;;;;;;;9.10;8.80;;;11.40;99.90;;;;;;5060403;28;20223;-84
2023/04/29 03:49:46;;;;;;;9.00;8.70;;;11.40;99.90;;;;;;5060856;28;20239;-84
2023/04/29 03:52:14;;;;;;;9.10;8.80;;;11.40;99.90;;;;;;5060802;28;20244;-84
2023/04/29 03:54:44;;;;;;;9.13;8.83;;;11.40;99.90;;;;;;5059699;28;20223;-84
2023/04/29 03:57:13;;;;;;;9.13;8.83;;;11.40;99.90;;;;;;5060403;28;20311;-84
2023/04/29 03:59:40;;;;;;;9.30;9.00;;;11.40;99.90;;;;;;5061867;28;20234;-84
2023/04/29 04:02:08;;;;;;;9.30;9.00;;;11.50;99.90;;;;;;5076581;28;20246;-84
2023/04/29 04:04:36;;;;;;;9.10;8.80;;;11.50;99.90;;;;;;5066702;28;20234;-84
2023/04/29 04:07:03;;;;;;;9.17;8.87;;;11.60;99.90;;;;;;5061826;28;20235;-84
2023/04/29 04:09:32;;;;;;;9.00;8.70;;;11.60;99.90;;;;;;5061092;28;20245;-83
2023/04/29 04:12:00;;;;;;;9.07;8.77;;;11.70;99.90;;;;;;5060720;28;20242;-84
2023/04/29 04:14:30;;;;;;;8.90;8.60;;;11.70;99.90;;;;;;5060509;28;20265;-84
2023/04/29 04:16:58;;;;;;;9.13;8.83;;;11.80;99.90;;;;;;5061047;28;20223;-84
2023/04/29 04:19:27;;;;;;;8.90;8.60;;;11.80;99.90;;;;;;5060157;28;20321;-84
2023/04/29 04:21:56;;;;;;;9.07;8.77;;;11.80;99.90;;;;;;5061137;28;20237;-84
2023/04/29 04:24:25;;;;;;;9.00;8.70;;;11.80;99.90;;;;;;5060307;28;20270;-85
2023/04/29 04:26:52;;;;;;;9.10;8.80;;;11.80;99.90;;;;;;5060628;28;20234;-84
2023/04/29 04:29:20;;;;;;;9.00;8.70;;;11.90;99.90;;;;;;5060904;28;20231;-85
2023/04/29 04:31:49;;;;;;;8.70;8.40;;;11.90;99.90;;;;;;5041053;28;20246;-85
2023/04/29 04:34:17;;;;;;;8.87;8.57;;;11.90;99.90;;;;;;5041682;28;20261;-85
2023/04/29 04:36:45;;;;;;;8.90;8.60;;;11.90;99.90;;;;;;5040293;28;20302;-85
2023/04/29 04:39:13;;;;;;;9.00;8.70;;;12.00;99.90;;;;;;5039854;28;20243;-85
2023/04/29 04:41:41;;;;;;;9.10;8.80;;;11.90;99.90;;;;;;5040982;28;20323;-85
2023/04/29 04:44:09;;;;;;;9.10;8.80;;;12.00;99.90;;;;;;5039577;28;20242;-85
2023/04/29 04:46:36;;;;;;;8.80;8.50;;;12.00;99.90;;;;;;5045571;28;20211;-85
2023/04/29 04:49:06;;;;;;;8.90;8.60;;;12.00;99.90;;;;;;5043824;28;20289;-84
2023/04/29 04:51:34;;;;;;;9.00;8.70;;;12.00;99.90;;;;;;5040679;28;20345;-84
2023/04/29 04:54:01;;;;;;;8.50;8.30;;;12.00;99.90;;;;;;5043751;28;20346;-84
2023/04/29 04:56:36;;;;;;;8.80;8.50;;;12.10;99.90;;;;;;5041931;28;20228;-84
2023/04/29 04:59:03;;;;;;;8.73;8.47;;;12.10;99.90;;;;;;5041126;28;20226;-84
2023/04/29 05:01:31;;;;;;;9.00;8.70;;;12.20;99.90;;;;;;5041416;28;20240;-85
2023/04/29 05:04:01;;;;;;;8.60;8.40;;;12.20;99.90;;;;;;5042335;28;20231;-84
2023/04/29 05:06:34;;;;;;;8.50;8.30;;;12.20;99.90;;;;;;5043862;28;20315;-84
2023/04/29 05:09:02;;;;;;;8.60;8.40;;;12.30;99.90;;;;;;5043565;28;20278;-84
2023/04/29 05:11:29;;;;;;;8.83;8.53;;;12.30;99.90;;;;;;5044218;28;20243;-84
2023/04/29 05:13:57;;;;;;;8.67;8.47;;;12.40;99.90;;;;;;5042665;28;20293;-84
2023/04/29 05:16:25;;;;;;;8.23;8.03;;;12.40;99.90;;;;;;5042871;28;20287;-84
2023/04/29 05:18:53;;;;;;;8.23;8.03;;;12.50;99.90;;;;;;5042978;28;20290;-84
2023/04/29 05:21:20;;;;;;;8.63;8.43;;;12.50;99.90;;;;;;5043858;28;20235;-84
2023/04/29 05:23:50;;;;;;;8.47;8.27;;;12.60;99.90;;;;;;5045033;28;20241;-84
2023/04/29 05:26:18;;;;;;;8.20;8.00;;;12.60;99.90;;;;;;5044168;28;20227;-84
2023/04/29 05:28:48;;;;;;;8.37;8.17;;;12.70;99.90;;;;;;5059721;28;20267;-84
2023/04/29 05:31:15;;;;;;;8.57;8.37;;;12.80;99.90;;;;;;5051980;28;20330;-84
2023/04/29 05:33:43;;;;;;;8.80;8.53;;;12.80;99.90;;;;;;5043927;28;20237;-84
2023/04/29 05:36:10;;;;;;;8.93;8.63;;;12.80;99.90;;;;;;5044207;28;20235;-84
2023/04/29 05:38:38;;;;;;;8.50;8.30;;;12.80;99.90;;;;;;5043967;28;20300;-85
2023/04/29 05:41:08;;;;;;;8.43;8.23;;;12.90;99.90;;;;;;5044474;28;20314;-84
2023/04/29 05:43:36;;;;;;;8.53;8.33;;;13.00;99.90;;;;;;5042998;28;20346;-84
2023/04/29 05:46:05;;;;;;;8.40;8.20;;;13.00;99.90;;;;;;5042699;28;20227;-84
2023/04/29 05:48:35;;;;;;;8.40;8.20;;;13.10;99.90;;;;;;5042418;28;21102;-87
2023/04/29 05:51:03;;;;;;;8.30;8.10;;;13.10;99.90;;;;;;5041942;28;20235;-84
2023/04/29 05:53:33;;;;;;;8.70;8.50;;;13.20;99.90;;;;;;5042878;28;20219;-84
2023/04/29 05:56:03;;;;;;;8.80;8.60;;;13.20;99.90;;;;;;5042557;28;20744;-84
2023/04/29 05:58:33;;;;;;;8.90;8.60;;;13.20;99.90;;;;;;5043301;28;20231;-84
2023/04/29 06:01:03;;;;;;;9.00;8.70;;;13.20;99.90;;;;;;5043433;28;20267;-84
2023/04/29 06:03:35;;;;;;;8.70;8.50;;;13.20;99.90;;;;;;5043961;28;20243;-84
2023/04/29 06:06:03;;;;;;;8.97;8.67;;;13.20;99.90;;;;;;5043282;28;21044;-84
2023/04/29 06:08:31;;;;;;;9.10;8.80;;;13.20;99.90;;;;;;5043447;28;20255;-84
2023/04/29 06:11:00;;;;;;;9.10;8.80;;;13.20;99.90;;;;;;5042964;28;20322;-85
2023/04/29 06:13:29;;;;;;;9.43;9.13;;;13.30;99.90;;;;;;5046018;28;20243;-84
2023/04/29 06:15:59;;;;;;;9.40;9.10;;;13.30;99.90;;;;;;5056913;28;20224;-84
2023/04/29 06:18:28;;;;;;;9.10;8.80;;;13.30;99.90;;;;;;5047161;28;20279;-84
2023/04/29 06:20:58;;;;;;;9.50;9.20;;;13.30;99.90;;;;;;5048230;28;20247;-84
2023/04/29 06:23:26;;;;;;;9.40;9.10;;;13.30;99.90;;;;;;5043323;28;20231;-86
2023/04/29 06:25:53;;;;;;;9.70;9.40;;;13.30;99.90;;;;;;5042746;28;20330;-85
2023/04/29 06:28:21;;;;;;;9.70;9.40;;;13.30;99.90;;;;;;5042554;28;20230;-84
2023/04/29 06:30:49;;;;;;;9.90;9.60;;;13.30;99.90;;;;;;5043287;28;20295;-85
2023/04/29 06:33:17;;;;;;;9.93;9.63;;;13.30;99.90;;;;;;5042389;28;20234;-84
2023/04/29 06:35:45;;;;;;;10.10;9.80;;;13.20;99.90;;;;;;5049827;28;20216;-86
2023/04/29 06:38:14;;;;;;;10.00;9.70;;;13.10;99.90;;;;;;5049209;28;20235;-84
2023/04/29 06:40:42;;;;;;;10.00;9.70;;;13.00;99.90;;;;;;5045487;28;20249;-86
2023/04/29 06:43:10;;;;;;;10.07;9.77;;;13.00;99.90;;;;;;5042111;28;20326;-84
2023/04/29 06:45:37;;;;;;;10.00;9.70;;;13.00;99.90;;;;;;5042741;28;20227;-85
2023/04/29 06:48:06;;;;;;;10.17;9.87;;;13.00;99.90;;;;;;5040993;28;20346;-85
2023/04/29 06:50:35;;;;;;;10.10;9.80;;;13.10;99.90;;;;;;5040665;28;20270;-85
2023/04/29 06:53:03;;;;;;;10.07;9.77;;;13.10;99.90;;;;;;5041366;28;20232;-85
2023/04/29 06:55:33;;;;;;;9.80;9.50;;;13.20;99.90;;;;;;5041030;28;20258;-85
2023/04/29 06:58:00;;;;;;;10.07;9.77;;;13.20;99.90;;;;;;5041063;28;20286;-85
2023/04/29 07:00:30;;;;;;;9.80;9.50;;;13.30;99.90;;;;;;5040916;28;20246;-85
2023/04/29 07:02:58;;;;;;;9.80;9.50;;;13.50;99.90;;;;;;5040497;28;20235;-85
2023/04/29 07:05:26;;;;;;;10.10;9.80;;;13.60;99.90;;;;;;5041506;28;20336;-85
2023/04/29 07:07:55;;;;;;;10.30;10.00;;;13.70;99.90;;;;;;5040500;28;20326;-85
2023/04/29 07:10:22;;;;;;;10.50;10.20;;;13.60;99.90;;;;;;5041098;28;20235;-85
2023/04/29 07:12:50;;;;;;;10.30;10.00;;;13.60;99.90;;;;;;5040967;28;20322;-85
2023/04/29 07:15:19;;;;;;;10.37;10.07;;;13.70;99.90;;;;;;5040688;28;20228;-84
2023/04/29 07:17:46;;;;;;;10.20;9.90;;;13.70;99.90;;;;;;5040301;28;20235;-85
2023/04/29 07:20:15;;;;;;;10.20;9.90;;;13.60;99.90;;;;;;5040027;28;20250;-85
2023/04/29 07:22:44;;;;;;;10.10;9.80;;;13.60;99.90;;;;;;5040319;28;20223;-85
2023/04/29 07:25:15;;;;;;;10.40;10.10;;;13.70;99.90;;;;;;5039775;28;20331;-85
2023/04/29 07:27:43;;;;;;;10.40;10.10;;;13.80;99.90;;;;;;5040437;28;20379;-85
2023/04/29 07:30:11;;;;;;;10.30;10.00;;;13.80;99.90;;;;;;5040461;28;20255;-85
2023/04/29 07:32:41;;;;;;;10.40;10.10;;;13.80;99.90;;;;;;5039885;28;20244;-85
2023/04/29 07:35:10;;;;;;;10.37;10.07;;;13.70;99.90;;;;;;5040649;28;20220;-84
2023/04/29 07:37:37;;;;;;;9.87;9.57;;;13.60;99.90;;;;;;5041031;28;20235;-85
2023/04/29 07:40:07;;;;;;;10.27;9.97;;;13.70;99.90;;;;;;5040785;28;20327;-84
2023/04/29 07:42:36;;;;;;;10.33;10.03;;;13.70;99.90;;;;;;5040525;28;20238;-85
2023/04/29 07:45:04;;;;;;;10.37;10.07;;;13.70;99.90;;;;;;5040189;28;20231;-85
2023/04/29 07:47:41;;;;;;;10.20;9.90;;;13.70;99.90;;;;;;5040365;28;20235;-85
2023/04/29 07:50:12;;;;;;;10.40;10.10;;;13.80;99.90;;;;;;5039969;28;20231;-86
2023/04/29 07:52:45;;;;;;;10.57;10.27;;;13.70;99.90;;;;;;5039999;28;20281;-87
2023/04/29 07:55:12;;;;;;;11.00;10.70;;;13.70;99.90;;;;;;5039760;28;20416;-85
2023/04/29 07:57:42;;;;;;;10.37;10.07;;;13.80;99.90;;;;;;5040631;28;20265;-84
2023/04/29 08:00:11;;;;;;;10.60;10.30;;;13.80;99.90;;;;;;5066405;28;20230;-85
2023/04/29 08:02:39;;;;;;;10.37;10.07;;;13.90;99.90;;;;;;5054645;28;20266;-84
2023/04/29 08:05:07;;;;;;;10.43;10.13;;;14.00;99.90;;;;;;5057448;28;20222;-84
2023/04/29 08:07:35;;;;;;;10.47;10.17;;;14.00;99.90;;;;;;5060424;28;20251;-84
2023/04/29 08:10:05;;;;;;;10.40;10.10;;;14.10;99.90;;;;;;5063227;28;20277;-84
2023/04/29 08:12:35;;;;;;;10.53;10.23;;;14.20;99.90;;;;;;5051828;28;20239;-85
2023/04/29 08:15:08;;;;;;;10.83;10.53;;;14.20;99.90;;;;;;5043920;28;20235;-85
2023/04/29 08:17:36;;;;;;;10.77;10.47;;;14.10;99.90;;;;;;5058811;28;20342;-85
2023/04/29 08:20:04;;;;;;;10.80;10.50;;;14.20;99.90;;;;;;5064203;28;20262;-84
2023/04/29 08:22:32;;;;;;;10.90;10.60;;;14.20;99.90;;;;;;5049390;28;20258;-84
2023/04/29 08:25:14;;;;;;;10.80;10.50;;;14.20;99.90;;;;;;5058264;28;20220;-88
2023/04/29 08:27:44;;;;;;;10.60;10.30;;;14.00;99.90;;;;;;5071199;28;20234;-86
2023/04/29 08:30:14;;;;;;;10.60;10.30;;;13.90;99.90;;;;;;5069666;28;20322;-85
2023/04/29 08:32:44;;;;;;;10.63;10.33;;;13.90;99.90;;;;;;5071530;28;20218;-86
2023/04/29 08:35:12;;;;;;;10.60;10.30;;;14.00;99.90;;;;;;5070187;28;20230;-85
2023/04/29 08:37:39;;;;;;;10.70;10.40;;;13.90;99.90;;;;;;5067311;28;20234;-85
2023/04/29 08:40:10;;;;;;;10.67;10.37;;;13.80;99.90;;;;;;5073823;28;20238;-83
2023/04/29 08:42:40;;;;;;;10.90;10.60;;;13.80;99.90;;;;;;5076299;28;20284;-84
2023/04/29 08:45:09;;;;;;;10.53;10.23;;;13.70;99.90;;;;;;5069148;28;20218;-83
2023/04/29 08:47:39;;;;;;;10.47;10.17;;;13.80;99.90;;;;;;5067416;28;20230;-84
2023/04/29 08:50:12;;;;;;;10.67;10.37;;;13.90;99.90;;;;;;5072206;28;21015;-84
2023/04/29 08:52:39;;;;;;;10.87;10.57;;;13.90;99.90;;;;;;5070516;28;20246;-83
2023/04/29 08:55:08;;;;;;;10.63;10.33;;;14.00;99.90;;;;;;5072139;28;20325;-83
2023/04/29 08:57:39;;;;;;;10.70;10.40;;;14.10;99.90;;;;;;5079038;28;20269;-83
2023/04/29 09:00:10;;;;;;;10.10;9.80;;;14.20;99.90;;;;;;5074734;28;20229;-84
2023/04/29 09:02:45;;;;;;;10.40;10.10;;;14.50;99.90;;;;;;5053148;28;20239;-84
2023/04/29 09:05:13;;;;;;;10.70;10.40;;;14.60;99.90;;;;;;5062090;28;20285;-84
2023/04/29 09:07:42;;;;;;;10.70;10.40;;;14.70;99.90;;;;;;5065950;28;20298;-84
2023/04/29 09:10:11;;;;;;;10.80;10.50;;;14.50;99.90;;;;;;5075229;28;20281;-83
2023/04/29 09:12:38;;;;;;;10.50;10.20;;;14.50;99.90;;;;;;5074872;28;20237;-85
2023/04/29 09:15:07;;;;;;;10.60;10.30;;;14.60;99.90;;;;;;5064153;28;20230;-84
2023/04/29 09:17:48;;;;;;;10.70;10.40;;;14.50;99.90;;;;;;5073519;28;20298;-85
2023/04/29 09:20:31;;;;;;;10.70;10.40;;;14.50;99.90;;;;;;5069382;28;20231;-86
2023/04/29 09:23:02;;;;;;;10.90;10.60;;;14.50;99.90;;;;;;5058438;28;20322;-85
2023/04/29 09:25:30;;;;;;;10.60;10.30;;;14.50;99.90;;;;;;5076812;28;20231;-86
2023/04/29 09:27:58;;;;;;;10.50;10.20;;;14.70;99.90;;;;;;5060720;28;20231;-84
2023/04/29 09:30:25;;;;;;;10.52;10.23;;;14.80;99.90;;;;;;5061689;28;20321;-86
2023/04/29 09:33:16;;;;;;;10.57;10.27;;;14.60;99.90;;;;;;5060772;28;20257;-86
2023/04/29 09:35:43;;;;;;;10.30;10.00;;;14.50;99.90;;;;;;5059190;28;20235;-87
2023/04/29 09:38:39;;;;;;;11.00;10.70;;;14.50;99.90;;;;;;5057965;28;20235;-90
2023/04/29 09:41:18;;;;;;;10.63;10.33;;;14.40;99.90;;;;;;5060169;28;20298;-88
2023/04/29 09:44:04;;;;;;;10.57;10.27;;;14.50;99.90;;;;;;5060054;28;20993;-90
2023/04/29 09:46:36;;;;;;;10.70;10.40;;;14.70;99.90;;;;;;5059807;28;20233;-88
2023/04/29 09:49:23;;;;;;;10.70;10.40;;;14.90;99.90;;;;;;5059679;28;20262;-86
2023/04/29 09:52:03;;;;;;;10.55;10.25;;;15.00;99.90;;;;;;5059597;28;20235;-86
2023/04/29 09:54:33;;;;;;;10.38;10.07;;;15.00;99.90;;;;;;5061723;28;20234;-88
2023/04/29 09:57:04;;;;;;;10.55;10.25;;;15.10;99.90;;;;;;5063870;28;20279;-86
2023/04/29 09:59:37;;;;;;;10.60;10.30;;;15.20;99.90;;;;;;5062672;28;20238;-86
2023/04/29 10:02:37;;;;;;;10.57;10.27;;;15.20;99.90;;;;;;5057609;28;20262;-87
2023/04/29 10:05:12;;;;;;;10.50;10.20;;;15.50;99.90;;;;;;5077838;28;20241;-88
2023/04/29 10:07:43;;;;;;;10.80;10.50;;;15.80;99.90;;;;;;5088570;28;20226;-89
2023/04/29 10:10:12;;;;;;;10.60;10.30;;;15.90;99.90;;;;;;5085833;28;20237;-84
2023/04/29 10:12:41;;;;;;;10.77;10.48;;;16.00;99.90;;;;;;5089242;28;20306;-83
2023/04/29 10:15:20;;;;;;;10.70;10.40;;;15.80;99.90;;;;;;5088816;28;20234;-83
2023/04/29 10:17:55;;;;;;;10.65;10.35;;;15.70;99.90;;;;;;5094728;28;20242;-85
2023/04/29 10:20:26;;;;;;;10.45;10.15;;;15.50;99.90;;;;;;5095579;28;20229;-82
2023/04/29 10:22:55;;;;;;;10.55;10.25;;;15.50;99.90;;;;;;5094379;28;20226;-83
2023/04/29 10:25:26;;;;;;;10.50;10.20;;;15.20;99.90;;;;;;5092859;28;20244;-84
2023/04/29 10:28:05;;;;;;;10.77;10.47;;;15.10;99.90;;;;;;5094719;28;20226;-84
2023/04/29 10:30:33;;;;;;;10.70;10.40;;;15.10;99.90;;;;;;5090453;28;20241;-83
2023/04/29 10:33:03;;;;;;;10.53;10.23;;;15.00;99.90;;;;;;5090513;28;20306;-82
2023/04/29 10:35:32;;;;;;;10.63;10.33;;;15.00;99.90;;;;;;5090908;28;20280;-83
2023/04/29 10:38:02;;;;;;;10.80;10.50;;;15.10;99.90;;;;;;5090090;28;20257;-82
2023/04/29 10:40:37;;;;;;;10.80;10.50;;;15.30;99.90;;;;;;5088983;28;20268;-82
2023/04/29 10:43:04;;;;;;;10.75;10.45;;;15.50;99.90;;;;;;5088948;28;20295;-83
2023/04/29 10:45:34;;;;;;;10.63;10.32;;;15.60;99.90;;;;;;5090067;28;20285;-82
2023/04/29 10:48:13;;;;;;;10.48;10.18;;;15.50;99.90;;;;;;5089973;28;20218;-82
2023/04/29 10:51:06;;;;;;;10.60;10.30;;;15.40;99.90;;;;;;5089929;28;20260;-81
2023/04/29 10:53:34;;;;;;;10.90;10.60;;;15.40;99.90;;;;;;5078794;28;20230;-84
2023/04/29 10:56:09;;;;;;;10.48;10.18;;;15.50;99.90;;;;;;5069678;28;20289;-86
2023/04/29 10:58:45;;;;;;;10.73;10.43;;;15.60;99.90;;;;;;5048022;28;20329;-84
2023/04/29 11:01:15;;;;;;;10.80;10.50;;;15.80;99.90;;;;;;5046458;28;20235;-85
2023/04/29 11:03:57;;;;;;;10.80;10.50;;;15.90;99.90;;;;;;5045974;28;20237;-85
2023/04/29 11:06:39;;;;;;;10.45;10.15;;;15.90;99.90;;;;;;5048129;28;20278;-83
2023/04/29 11:09:18;;;;;;;10.80;10.50;;;15.60;99.90;;;;;;5048941;28;20231;-83
2023/04/29 11:12:04;;;;;;;10.67;10.37;;;15.20;99.90;;;;;;5048102;28;20307;-90
2023/04/29 11:14:53;;;;;;;10.82;10.52;;;15.10;99.90;;;;;;5048400;28;20284;-91
2023/04/29 11:17:23;;;;;;;10.80;10.50;;;15.10;99.90;;;;;;5047839;28;20233;-88
2023/04/29 11:19:57;;;;;;;10.60;10.30;;;15.20;99.90;;;;;;5048582;28;20220;-89
2023/04/29 11:22:52;;;;;;;10.30;10.00;;;15.20;99.90;;;;;;5048116;28;20246;-87
2023/04/29 11:25:29;;;;;;;10.60;10.30;;;15.10;99.90;;;;;;5049555;28;20299;-89
2023/04/29 11:28:00;;;;;;;10.60;10.30;;;15.20;99.90;;;;;;5047949;28;20274;-89
2023/04/29 11:30:50;;;;;;;;;;;;;;;;;;;;;
2023/04/29 11:39:17;;;;;;;10.60;10.30;;;15.20;99.90;;;;;;5033781;28;20226;-90
2023/04/29 11:41:45;;;;;;;10.73;10.43;;;15.20;99.90;;;;;;5072059;28;20282;-89
2023/04/29 11:44:26;;;;;;;10.40;10.10;;;15.10;99.90;;;;;;5073847;28;20265;-89
2023/04/29 11:47:23;;;;;;;;;;;;;;;;;;;;;
2023/04/29 11:49:51;;;;;;;10.32;10.02;;;15.10;99.90;;;;;;5069527;28;20217;-90
2023/04/29 11:52:21;;;;;;;10.38;10.07;;;15.20;99.90;;;;;;5069927;28;20914;-89
2023/04/29 11:54:59;;;;;;;10.77;10.48;;;15.20;99.90;;;;;;5085019;28;20264;-90
2023/04/29 11:57:30;;;;;;;10.52;10.23;;;15.20;99.90;;;;;;5091274;28;20234;-89
2023/04/29 12:05:34;;;;;;;10.40;10.10;;;15.20;99.90;;;;;;5088221;28;20323;-89
2023/04/29 12:08:01;;;;;;;10.60;10.30;;;15.10;99.90;;;;;;5088626;28;20226;-88
2023/04/29 12:10:31;;;;;;;10.20;9.90;;;15.00;99.90;;;;;;5088420;28;20226;-86
2023/04/29 12:13:02;;;;;;;10.50;10.20;;;15.10;99.90;;;;;;5074138;28;20246;-86
2023/04/29 12:15:31;;;;;;;10.30;10.00;;;15.00;99.90;;;;;;5069349;28;20286;-85
2023/04/29 12:17:59;;;;;;;10.40;10.10;;;15.00;99.90;;;;;;5068352;28;20254;-84
2023/04/29 12:20:30;;;;;;;10.43;10.13;;;15.00;99.90;;;;;;5070746;28;20227;-85
2023/04/29 12:23:12;;;;;;;10.60;10.30;;;14.80;99.90;;;;;;5075031;28;20215;-86
2023/04/29 12:25:42;;;;;;;10.40;10.10;;;14.80;99.90;;;;;;5074830;28;20242;-85
2023/04/29 12:28:13;;;;;;;10.40;10.10;;;14.70;99.90;;;;;;5078372;28;20325;-86
2023/04/29 12:30:40;;;;;;;10.30;10.00;;;14.70;99.90;;;;;;5065408;28;20230;-86
2023/04/29 12:33:09;;;;;;;10.50;10.20;;;14.80;99.90;;;;;;5063214;28;20227;-85
2023/04/29 12:35:41;;;;;;;10.40;10.10;;;14.90;99.90;;;;;;5061476;28;20231;-87
2023/04/29 12:38:13;;;;;;;10.45;10.15;;;15.00;99.90;;;;;;5065440;28;20265;-87
2023/04/29 12:40:45;;;;;;;10.35;10.05;;;14.90;99.90;;;;;;5063709;28;20238;-86
2023/04/29 12:43:13;;;;;;;10.20;9.90;;;14.90;99.90;;;;;;5063519;28;20234;-85
2023/04/29 12:45:41;;;;;;;10.35;10.05;;;14.70;99.90;;;;;;5063717;28;20242;-86
2023/04/29 12:48:09;;;;;;;10.30;10.00;;;14.70;99.90;;;;;;5063024;28;20234;-86
2023/04/29 12:50:39;;;;;;;10.63;10.32;;;14.60;99.90;;;;;;5064055;28;20223;-84
2023/04/29 12:53:08;;;;;;;10.30;10.00;;;14.60;99.90;;;;;;5063391;28;20254;-84
2023/04/29 12:55:37;;;;;;;10.40;10.10;;;14.60;99.90;;;;;;5063253;28;20227;-84
2023/04/29 12:58:08;;;;;;;10.50;10.20;;;14.60;99.90;;;;;;5062480;28;20235;-88
2023/04/29 13:00:38;;;;;;;10.30;10.00;;;14.40;99.90;;;;;;5063068;28;20258;-88
2023/04/29 13:03:06;;;;;;;10.30;10.00;;;14.50;99.90;;;;;;5062310;28;20282;-86
2023/04/29 13:05:34;;;;;;;10.10;9.80;;;14.60;99.90;;;;;;5061276;28;20239;-85
2023/04/29 13:08:02;;;;;;;10.07;9.77;;;14.80;99.90;;;;;;5061576;28;20262;-86
2023/04/29 13:10:29;;;;;;;9.98;9.68;;;14.90;99.90;;;;;;5061935;28;20320;-86